Aviation weather information 2020-08-04 00:15 UTC

TAF(FTEO31)
FTEO31 EETN 032300
TAF EETN 022326Z 0400/0424 VRB02KT 9999 SCT010 PROB40 TEMPO
     0400/0405 1000 BR BKN003 BECMG 0405/0607 6000 RA BKN010 OVC025
     TEMPO 0407/0415 2000 SHRA BR BKN004 SCT020CB BECMG 0416/0418
     9999 NSW BKN012 PROB40 TEMPO 0420/0424 2000 BR BKN004=

TAF(FTEO33)
FTEO33 EEEI 032330
TAF EEEI 032330Z 0400/0424 17005KT 9999 FEW025 PROB30 TEMPO
     0400/0403 VRB02KT 3000 BR SCT003 TEMPO 0404/0414 4000 RA BKN015
     OVC023 PROB40 TEMPO 0410/0413 BKN006 BECMG 0411/0413 07006KT
     BECMG 0421/0423 31010KT= 

Weather observation (METAR/SPECI)
METAR EETN 032350Z VRB02KT CAVOK 13/12 Q1009=
METAR EEEI 032350Z AUTO 15006KT CAVOK 13/13 Q1009=
METAR EETU 032350Z AUTO 16001KT 9999 -RA SCT064/// OVC098/// 16/14
Q1010=
METAR EEPU 032350Z NIL=
METAR EEKE 032350Z AUTO 00000KT 9999NDV -RA NSC 16/15 Q1009=
METAR EEKA 032350Z NIL=